createdAt,value
2018-09-28T00:00:47.146Z,99.99
2018-09-28T00:02:47.187Z,99.99
2018-09-28T00:03:46.952Z,99.99
2018-09-28T00:04:47.235Z,99.99
2018-09-28T00:05:47.252Z,99.99
2018-09-28T00:07:01.936Z,99.99
2018-09-28T00:07:47.300Z,99.99
2018-09-28T00:08:47.319Z,99.99
2018-09-28T00:09:47.336Z,99.99
2018-09-28T00:10:47.104Z,99.99
2018-09-28T00:11:47.129Z,99.99
2018-09-28T00:12:47.402Z,99.99
2018-09-28T00:14:47.444Z,99.99
2018-09-28T00:15:47.472Z,99.99
2018-09-28T00:16:47.488Z,99.99
2018-09-28T00:17:47.509Z,99.99
2018-09-28T00:18:47.532Z,99.99
2018-09-28T00:19:47.552Z,99.99
2018-09-28T00:20:47.574Z,99.99
2018-09-28T00:21:47.605Z,99.99
2018-09-28T00:22:47.619Z,99.99
2018-09-28T00:23:47.638Z,99.99
2018-09-28T00:25:47.713Z,99.99
2018-09-28T00:26:47.705Z,99.99
2018-09-28T00:27:47.723Z,99.99
2018-09-28T00:28:47.745Z,99.99
2018-09-28T00:29:47.771Z,99.99
2018-09-28T00:32:47.835Z,99.99
2018-09-28T00:33:47.856Z,99.99
2018-09-28T00:34:47.873Z,99.99
2018-09-28T00:35:47.657Z,99.99
2018-09-28T00:36:47.916Z,99.99
2018-09-28T00:37:47.937Z,99.99
2018-09-28T00:39:02.622Z,99.99
2018-09-28T00:39:47.985Z,99.99
2018-09-28T00:40:48.000Z,99.99
2018-09-28T00:41:47.764Z,99.99
2018-09-28T00:42:48.041Z,99.99
2018-09-28T00:43:48.065Z,99.99
2018-09-28T00:44:48.091Z,99.99
2018-09-28T00:45:48.105Z,99.99
2018-09-28T00:46:48.133Z,99.99
2018-09-28T00:47:48.149Z,99.99
2018-09-28T00:48:48.171Z,99.99
2018-09-28T00:49:48.192Z,99.99
2018-09-28T00:50:47.957Z,99.99
2018-09-28T00:51:48.238Z,99.99
2018-09-28T00:52:48.254Z,99.99
2018-09-28T00:53:48.275Z,99.99
2018-09-28T00:55:02.963Z,99.99
2018-09-28T00:55:48.066Z,99.99
2018-09-28T00:56:48.342Z,99.99
2018-09-28T00:57:48.104Z,99.99
2018-09-28T00:58:48.381Z,99.99
2018-09-28T00:59:48.405Z,99.99
2018-09-28T01:00:48.166Z,99.99
2018-09-28T01:01:48.445Z,99.99
2018-09-28T01:02:48.490Z,99.99
2018-09-28T01:03:48.231Z,99.99
2018-09-28T01:04:48.511Z,99.99
2018-09-28T01:05:48.532Z,99.99
2018-09-28T01:06:48.561Z,99.99
2018-09-28T01:07:48.574Z,99.99
2018-09-28T01:08:48.600Z,99.99
2018-09-28T01:09:48.615Z,99.99
2018-09-28T01:11:03.296Z,99.99
2018-09-28T01:11:48.660Z,99.99
2018-09-28T01:12:48.678Z,99.99
2018-09-28T01:13:48.700Z,99.99
2018-09-28T01:14:48.720Z,99.99
2018-09-28T01:15:48.743Z,99.99
2018-09-28T01:16:48.763Z,99.99
2018-09-28T01:17:48.786Z,99.99
2018-09-28T01:18:48.858Z,99.99
2018-09-28T01:19:48.827Z,99.99
2018-09-28T01:20:48.854Z,99.99
2018-09-28T01:21:48.869Z,99.99
2018-09-28T01:22:48.939Z,99.99
2018-09-28T01:23:48.909Z,99.99
2018-09-28T01:24:48.931Z,99.99
2018-09-28T01:25:48.953Z,99.99
2018-09-28T01:27:03.635Z,99.99
2018-09-28T01:27:48.995Z,99.99
2018-09-28T01:28:49.016Z,99.99
2018-09-28T01:29:49.036Z,99.99
2018-09-28T01:30:49.057Z,99.99
2018-09-28T01:31:49.079Z,99.99
2018-09-28T01:32:49.096Z,99.99
2018-09-28T01:33:48.862Z,99.99
2018-09-28T01:34:49.139Z,99.99
2018-09-28T01:35:49.165Z,99.99
2018-09-28T01:36:49.186Z,99.99
2018-09-28T01:37:49.202Z,99.99
2018-09-28T01:38:49.228Z,99.99
2018-09-28T01:39:49.246Z,99.99
2018-09-28T01:40:49.267Z,99.99
2018-09-28T01:42:03.948Z,99.99
2018-09-28T01:42:49.068Z,99.99
2018-09-28T01:43:49.329Z,99.99
2018-09-28T01:44:49.353Z,99.99
2018-09-28T01:45:49.372Z,99.99
2018-09-28T01:46:49.396Z,99.99
2018-09-28T01:47:49.414Z,99.99
2018-09-28T01:48:49.434Z,99.99
2018-09-28T01:49:49.461Z,99.99
2018-09-28T01:51:49.497Z,99.99
2018-09-28T01:52:49.518Z,99.99
2018-09-28T01:53:49.549Z,99.99
2018-09-28T01:54:49.557Z,99.99
2018-09-28T01:55:49.584Z,99.99
2018-09-28T01:56:49.612Z,99.99
2018-09-28T01:57:49.623Z,99.99
2018-09-28T01:58:49.643Z,99.99
2018-09-28T01:59:49.663Z,99.99
2018-09-28T02:00:49.683Z,99.99
2018-09-28T02:01:49.707Z,99.99
2018-09-28T02:02:49.728Z,99.99
2018-09-28T02:03:49.753Z,99.99
2018-09-28T02:04:49.768Z,99.99
2018-09-28T02:05:49.791Z,99.99
2018-09-28T02:06:49.557Z,99.99
2018-09-28T02:07:49.829Z,99.99
2018-09-28T02:08:49.853Z,99.99
2018-09-28T02:09:49.874Z,99.99
2018-09-28T02:10:49.895Z,99.99
2018-09-28T02:11:49.911Z,99.99
2018-09-28T02:12:49.934Z,99.99
2018-09-28T02:14:04.615Z,99.99
2018-09-28T02:14:49.979Z,99.99
2018-09-28T02:15:50.120Z,99.99
2018-09-28T02:16:50.015Z,99.99
2018-09-28T02:17:50.068Z,99.99
2018-09-28T02:18:49.800Z,99.99
2018-09-28T02:20:50.099Z,99.99
2018-09-28T02:21:50.119Z,99.99
2018-09-28T02:22:50.146Z,99.99
2018-09-28T02:23:50.161Z,99.99
2018-09-28T02:24:50.637Z,99.99
2018-09-28T02:25:50.205Z,99.99
2018-09-28T02:26:50.224Z,99.99
2018-09-28T02:27:50.248Z,99.99
2018-09-28T02:28:50.266Z,99.99
2018-09-28T02:30:04.950Z,99.99
2018-09-28T02:30:50.323Z,99.99
2018-09-28T02:31:50.330Z,99.99
2018-09-28T02:32:50.346Z,99.99
2018-09-28T02:33:50.112Z,99.99
2018-09-28T02:34:50.132Z,99.99
2018-09-28T02:35:50.410Z,99.99
2018-09-28T02:36:50.439Z,99.99
2018-09-28T02:37:50.460Z,99.99
2018-09-28T02:38:50.473Z,99.99
2018-09-28T02:40:50.515Z,99.95
2018-09-28T02:41:50.545Z,99.28
2018-09-28T02:42:50.297Z,98.9
2018-09-28T02:43:50.319Z,99.28
2018-09-28T02:44:51.147Z,98.8
2018-09-28T02:46:05.277Z,98.52
2018-09-28T02:46:50.639Z,98.52
2018-09-28T02:47:50.664Z,97.85
2018-09-28T02:48:50.682Z,97.75
2018-09-28T02:49:50.702Z,97.85
2018-09-28T02:50:50.463Z,97.75
2018-09-28T02:51:50.741Z,96.98
2018-09-28T02:52:50.769Z,96.42
2018-09-28T02:53:50.524Z,96.03
2018-09-28T02:54:50.808Z,95.75
2018-09-28T02:55:50.824Z,94.98
2018-09-28T02:56:50.942Z,95.27
2018-09-28T02:57:50.865Z,95.46
2018-09-28T02:58:50.894Z,95.65
2018-09-28T02:59:50.912Z,94.98
2018-09-28T03:00:50.935Z,94.51
2018-09-28T03:02:05.609Z,94.41
2018-09-28T03:02:50.969Z,93.6
2018-09-28T03:03:50.991Z,93.79
2018-09-28T03:04:51.012Z,93.02
2018-09-28T03:05:51.030Z,93.6
2018-09-28T03:06:51.056Z,93.6
2018-09-28T03:07:51.072Z,92.74
2018-09-28T03:08:51.094Z,93.12
2018-09-28T03:09:51.114Z,92.26
2018-09-28T03:10:51.139Z,92.45
2018-09-28T03:13:51.201Z,91.5
2018-09-28T03:14:51.218Z,91.21
2018-09-28T03:15:51.241Z,91.88
2018-09-28T03:17:05.921Z,91.97
2018-09-28T03:17:51.281Z,92.16
2018-09-28T03:18:51.351Z,92.36
2018-09-28T03:19:51.326Z,92.16
2018-09-28T03:20:51.343Z,91.5
2018-09-28T03:21:51.367Z,91.4
2018-09-28T03:22:51.384Z,91.59
2018-09-28T03:23:51.412Z,90.73
2018-09-28T03:24:51.169Z,91.59
2018-09-28T03:25:51.592Z,91.69
2018-09-28T03:26:51.468Z,90.54
2018-09-28T03:27:51.494Z,90.64
2018-09-28T03:28:51.512Z,90.64
2018-09-28T03:29:51.528Z,90.83
2018-09-28T03:30:51.552Z,91.3
2018-09-28T03:31:51.587Z,90.92
2018-09-28T03:32:51.592Z,90.35
2018-09-28T03:33:51.635Z,90.16
2018-09-28T03:34:51.636Z,90.39
2018-09-28T03:35:51.653Z,90.11
2018-09-28T03:36:51.416Z,90.68
2018-09-28T03:37:51.694Z,89.97
2018-09-28T03:38:51.716Z,90.45
2018-09-28T03:39:51.739Z,89.97
2018-09-28T03:40:51.499Z,90.45
2018-09-28T03:41:51.519Z,90.54
2018-09-28T03:42:51.799Z,90.64
2018-09-28T03:43:51.819Z,90.83
2018-09-28T03:44:51.838Z,89.97
2018-09-28T03:45:51.860Z,89.87
2018-09-28T03:46:51.882Z,90.83
2018-09-28T03:47:51.911Z,90.35
2018-09-28T03:49:06.583Z,90.73
2018-09-28T03:49:51.943Z,91.11
2018-09-28T03:50:51.975Z,90.45
2018-09-28T03:51:51.988Z,90.92
2018-09-28T03:52:52.003Z,91.21
2018-09-28T03:53:52.032Z,90.73
2018-09-28T03:54:51.789Z,91.11
2018-09-28T03:55:52.069Z,91.69
2018-09-28T03:57:52.110Z,91.3
2018-09-28T03:58:52.134Z,91.59
2018-09-28T03:59:52.154Z,91.69
2018-09-28T04:00:52.168Z,91.11
2018-09-28T04:01:52.193Z,91.69
2018-09-28T04:02:52.355Z,91.4
2018-09-28T04:03:51.974Z,91.69
2018-09-28T04:05:06.912Z,91.97
2018-09-28T04:05:52.475Z,92.07
2018-09-28T04:06:52.299Z,92.93
2018-09-28T04:07:52.313Z,92.55
2018-09-28T04:08:52.353Z,92.55
2018-09-28T04:09:52.359Z,92.83
2018-09-28T04:10:52.376Z,93.12
2018-09-28T04:11:52.401Z,93.31
2018-09-28T04:12:52.419Z,93.21
2018-09-28T04:14:52.477Z,93.02
2018-09-28T04:15:52.483Z,93.02
2018-09-28T04:16:52.507Z,93.31
2018-09-28T04:17:52.262Z,93.26
2018-09-28T04:18:52.541Z,93.02
2018-09-28T04:19:52.304Z,93.46
2018-09-28T04:21:07.245Z,93.26
2018-09-28T04:21:52.630Z,93.74
2018-09-28T04:22:52.623Z,94.03
2018-09-28T04:23:52.651Z,93.74
2018-09-28T04:24:52.665Z,93.74
2018-09-28T04:25:52.687Z,94.03
2018-09-28T04:26:52.713Z,94.31
2018-09-28T04:29:52.509Z,94.79
2018-09-28T04:30:52.787Z,94.6
2018-09-28T04:32:52.826Z,94.6
2018-09-28T04:33:52.849Z,94.6
2018-09-28T04:34:52.893Z,95.08
2018-09-28T04:35:52.894Z,95.08
2018-09-28T04:37:07.573Z,95.27
2018-09-28T04:37:52.939Z,95.17
2018-09-28T04:38:52.965Z,95.17
2018-09-28T04:39:52.972Z,94.98
2018-09-28T04:40:52.736Z,95.36
2018-09-28T04:41:52.754Z,94.98
2018-09-28T04:42:53.033Z,95.65
2018-09-28T04:43:52.796Z,95.36
2018-09-28T04:44:53.071Z,95.36
2018-09-28T04:45:53.096Z,95.36
2018-09-28T04:46:53.115Z,95.56
2018-09-28T04:47:52.878Z,95.75
2018-09-28T04:48:53.159Z,95.36
2018-09-28T04:49:52.919Z,95.75
2018-09-28T04:50:53.197Z,95.36
2018-09-28T04:52:07.879Z,95.17
2018-09-28T04:52:53.237Z,94.6
2018-09-28T04:53:53.255Z,94.22
2018-09-28T04:54:53.023Z,94.7
2018-09-28T04:55:53.300Z,94.6
2018-09-28T04:56:53.319Z,94.6
2018-09-28T04:57:53.340Z,94.93
2018-09-28T04:58:53.360Z,94.17
2018-09-28T04:59:53.384Z,94.17
2018-09-28T05:00:53.406Z,94.17
2018-09-28T05:01:53.421Z,94.07
2018-09-28T05:02:53.442Z,93.7
2018-09-28T05:03:53.463Z,92.83
2018-09-28T05:04:53.485Z,93.7
2018-09-28T05:05:53.504Z,93.7
2018-09-28T05:06:53.528Z,93.79
2018-09-28T05:07:53.544Z,93.02
2018-09-28T05:08:53.568Z,93.88
2018-09-28T05:09:53.587Z,93.5
2018-09-28T05:10:53.610Z,93.6
2018-09-28T05:11:53.628Z,93.31
2018-09-28T05:12:53.646Z,92.93
2018-09-28T05:14:53.695Z,93.79
2018-09-28T05:15:53.710Z,93.88
2018-09-28T05:16:53.731Z,93.79
2018-09-28T05:17:53.753Z,93.74
2018-09-28T05:18:53.774Z,93.26
2018-09-28T05:19:53.793Z,93.65
2018-09-28T05:20:53.814Z,93.93
2018-09-28T05:21:53.837Z,94.22
2018-09-28T05:22:53.695Z,93.16
2018-09-28T05:24:08.536Z,93.16
2018-09-28T05:24:53.896Z,93.65
2018-09-28T05:25:53.661Z,93.74
2018-09-28T05:26:53.937Z,92.88
2018-09-28T05:27:53.956Z,93.16
2018-09-28T05:28:53.980Z,93.26
2018-09-28T05:29:54.002Z,93.26
2018-09-28T05:30:56.812Z,93.74
2018-09-28T05:31:53.896Z,93.93
2018-09-28T05:32:54.387Z,94.12
2018-09-28T05:33:54.087Z,94.22
2018-09-28T05:34:54.104Z,94.6
2018-09-28T05:35:53.868Z,94.79
2018-09-28T05:36:53.887Z,95.7
2018-09-28T05:37:53.906Z,95.98
2018-09-28T05:38:53.928Z,95.22
2018-09-28T05:40:08.868Z,95.32
2018-09-28T05:40:54.226Z,95.22
2018-09-28T05:41:54.253Z,94.84
2018-09-28T05:42:54.269Z,95.32
2018-09-28T05:43:54.433Z,95.12
2018-09-28T05:44:54.051Z,95.32
2018-09-28T05:45:54.077Z,95.12
2018-09-28T05:46:54.352Z,95.03
2018-09-28T05:47:54.390Z,95.22
2018-09-28T05:49:54.417Z,95.12
2018-09-28T05:50:54.435Z,94.93
2018-09-28T05:51:54.454Z,95.12
2018-09-28T05:52:54.475Z,95.22
2018-09-28T05:53:54.499Z,95.61
2018-09-28T05:54:54.260Z,95.79
2018-09-28T05:56:09.199Z,95.89
2018-09-28T05:56:54.557Z,95.79
2018-09-28T05:57:54.579Z,95.7
2018-09-28T05:58:54.601Z,95.61
2018-09-28T05:59:54.622Z,95.41
2018-09-28T06:00:54.642Z,95.7
2018-09-28T06:01:54.666Z,95.98
2018-09-28T06:02:54.726Z,95.79
2018-09-28T06:03:54.705Z,95.98
2018-09-28T06:04:54.757Z,96.27
2018-09-28T06:05:54.748Z,95.98
2018-09-28T06:06:54.766Z,95.89
2018-09-28T06:07:54.791Z,96.08
2018-09-28T06:08:54.809Z,96.47
2018-09-28T06:09:54.833Z,96.56
2018-09-28T06:10:54.592Z,96.56
2018-09-28T06:12:09.532Z,96.18
2018-09-28T06:13:09.552Z,96.27
2018-09-28T06:13:54.910Z,96.37
2018-09-28T06:14:54.935Z,96.27
2018-09-28T06:15:55.062Z,96.27
2018-09-28T06:16:54.973Z,96.66
2018-09-28T06:17:55.122Z,96.75
2018-09-28T06:18:55.103Z,96.66
2018-09-28T06:19:55.053Z,96.94
2018-09-28T06:20:55.065Z,96.94
2018-09-28T06:21:55.078Z,96.37
2018-09-28T06:22:55.100Z,96.56
2018-09-28T06:23:55.120Z,96.18
2018-09-28T06:24:54.882Z,96.75
2018-09-28T06:25:55.319Z,96.56
2018-09-28T06:27:09.844Z,96.47
2018-09-28T06:27:55.208Z,96.75
2018-09-28T06:28:55.225Z,96.47
2018-09-28T06:29:55.408Z,96.84
2018-09-28T06:30:55.266Z,96.75
2018-09-28T06:32:55.308Z,96.75
2018-09-28T06:33:55.329Z,96.37
2018-09-28T06:34:55.093Z,96.37
2018-09-28T06:35:55.508Z,95.89
2018-09-28T06:36:55.395Z,96.66
2018-09-28T06:37:55.414Z,96.47
2018-09-28T06:38:55.436Z,96.27
2018-09-28T06:39:55.470Z,95.89
2018-09-28T06:41:55.720Z,95.98
2018-09-28T06:42:55.260Z,95.79
2018-09-28T06:43:55.538Z,95.32
2018-09-28T06:44:55.562Z,95.12
2018-09-28T06:45:55.629Z,95.12
2018-09-28T06:47:55.501Z,94.84
2018-09-28T06:48:55.766Z,94.65
2018-09-28T06:50:55.685Z,92.93
2018-09-28T06:51:55.709Z,93.21
2018-09-28T06:52:55.727Z,93.21
2018-09-28T06:53:55.896Z,92.45
2018-09-28T06:54:55.769Z,92.35
2018-09-28T06:55:55.797Z,91.68
2018-09-28T06:56:55.809Z,91.83
2018-09-28T06:57:55.832Z,90.48
2018-09-28T06:59:10.515Z,90.01
2018-09-28T06:59:55.989Z,89.72
2018-09-28T07:00:55.639Z,89.15
2018-09-28T07:01:55.917Z,87.85
2018-09-28T07:02:55.940Z,86.8
2018-09-28T07:03:56.073Z,85.6
2018-09-28T07:04:55.725Z,83.68
2018-09-28T07:05:56.259Z,83.25
2018-09-28T07:06:56.029Z,82.09
2018-09-28T07:08:55.818Z,79.45
2018-09-28T07:09:56.103Z,78.49
2018-09-28T07:10:56.123Z,78.55
2018-09-28T07:11:56.269Z,78.55
2018-09-28T07:12:56.233Z,78.07
2018-09-28T07:13:56.199Z,78.17
2018-09-28T07:15:10.883Z,77.31
2018-09-28T07:15:56.249Z,77.5
2018-09-28T07:16:56.461Z,77.69
2018-09-28T07:17:56.490Z,78.27
2018-09-28T07:18:56.325Z,78.03
2018-09-28T07:19:56.350Z,78.13
2018-09-28T07:20:56.517Z,78.22
2018-09-28T07:21:56.133Z,78.03
2018-09-28T07:22:56.428Z,78.09
2018-09-28T07:23:56.596Z,77.99
2018-09-28T07:24:56.514Z,77.51
2018-09-28T07:25:56.488Z,77.33
2018-09-28T07:26:56.519Z,77.23
2018-09-28T07:27:56.539Z,76.65
2018-09-28T07:28:56.562Z,76.46
2018-09-28T07:29:56.795Z,76.31
2018-09-28T07:31:11.270Z,74.77
2018-09-28T07:31:56.633Z,74.87
2018-09-28T07:32:56.656Z,75.07
2018-09-28T07:33:56.685Z,74.49
2018-09-28T07:34:56.716Z,74.49
2018-09-28T07:35:56.547Z,74.33
2018-09-28T07:36:57.104Z,73.57
2018-09-28T07:37:56.777Z,73.28
2018-09-28T07:38:56.542Z,73.57
2018-09-28T07:39:56.569Z,73.76
2018-09-28T07:40:56.855Z,74.43
2018-09-28T07:42:56.644Z,74.68
2018-09-28T07:43:56.668Z,74.58
2018-09-28T07:44:56.954Z,75.07
2018-09-28T07:45:56.977Z,74.58
2018-09-28T07:47:11.660Z,74.87
2018-09-28T07:47:56.830Z,75.07
2018-09-28T07:48:57.052Z,75.26
2018-09-28T07:49:57.072Z,75.26
2018-09-28T07:50:57.095Z,74.4
2018-09-28T07:51:57.122Z,74.68
2018-09-28T07:52:57.145Z,74.68
2018-09-28T07:53:57.172Z,74.4
2018-09-28T07:54:57.193Z,75.07
2018-09-28T07:55:57.031Z,74.97
2018-09-28T07:56:56.984Z,74.87
2018-09-28T07:57:57.270Z,74.97
2018-09-28T07:58:57.290Z,74.77
2018-09-28T07:59:57.319Z,75.45
2018-09-28T08:00:57.341Z,74.52
2018-09-28T08:02:12.028Z,73.38
2018-09-28T08:02:57.393Z,73.86
2018-09-28T08:03:57.543Z,74.15
2018-09-28T08:04:57.442Z,72.9
2018-09-28T08:05:57.467Z,72.32
2018-09-28T08:06:57.490Z,71.78
2018-09-28T08:07:57.518Z,72.07
2018-09-28T08:08:57.538Z,71.21
2018-09-28T08:09:57.563Z,70.09
2018-09-28T08:11:57.664Z,69.35
2018-09-28T08:12:57.642Z,70.21
2018-09-28T08:13:57.665Z,70.5
2018-09-28T08:14:57.688Z,69.35
2018-09-28T08:15:57.718Z,69.26
2018-09-28T08:16:57.736Z,69.29
2018-09-28T08:17:57.828Z,69.33
2018-09-28T08:18:57.809Z,69.48
2018-09-28T08:19:57.812Z,69.1
2018-09-28T08:20:57.842Z,67.85
2018-09-28T08:21:57.861Z,68.24
2018-09-28T08:22:57.892Z,68.24
2018-09-28T08:23:57.910Z,67.91
2018-09-28T08:24:57.933Z,68.52
2018-09-28T08:26:58.007Z,69.74
2018-09-28T08:27:58.009Z,69.45
2018-09-28T08:28:58.033Z,69.07
2018-09-28T08:29:58.262Z,68.4
2018-09-28T08:30:58.081Z,67.28
2018-09-28T08:31:58.115Z,66.42
2018-09-28T08:32:58.129Z,66.03
2018-09-28T08:34:12.816Z,64.63
2018-09-28T08:34:58.180Z,64.22
2018-09-28T08:35:58.212Z,63.64
2018-09-28T08:36:58.229Z,63.26
2018-09-28T08:37:58.254Z,62.2
2018-09-28T08:38:58.277Z,62.59
2018-09-28T08:39:58.310Z,62.96
2018-09-28T08:40:58.327Z,63.26
2018-09-28T08:41:58.495Z,63.42
2018-09-28T08:42:58.376Z,62.74
2018-09-28T08:43:58.401Z,63.51
2018-09-28T08:44:58.429Z,63.26
2018-09-28T08:45:58.551Z,63.26
2018-09-28T08:46:58.476Z,62.3
2018-09-28T08:47:58.497Z,61.82
2018-09-28T08:48:58.521Z,61.53
2018-09-28T08:50:13.209Z,60.22
2018-09-28T08:50:58.575Z,59.83
2018-09-28T08:51:58.598Z,59.48
2018-09-28T08:52:58.624Z,59.19
2018-09-28T08:53:58.646Z,57.97
2018-09-28T08:54:58.673Z,57.4
2018-09-28T08:55:58.698Z,56.53
2018-09-28T08:56:58.717Z,56.63
2018-09-28T08:57:58.744Z,57.46
2018-09-28T08:59:58.792Z,58.01
2018-09-28T09:00:58.561Z,57.63
2018-09-28T09:01:59.035Z,58.11
2018-09-28T09:02:58.610Z,58.23
2018-09-28T09:03:58.991Z,57.08
2018-09-28T09:04:58.918Z,56.02
2018-09-28T09:06:13.602Z,57.18
2018-09-28T09:06:58.970Z,57.28
2018-09-28T09:07:58.989Z,57.28
2018-09-28T09:08:59.012Z,57.08
2018-09-28T09:09:58.880Z,57.18
2018-09-28T09:10:59.064Z,56.73
2018-09-28T09:11:59.088Z,56.63
2018-09-28T09:12:59.112Z,57.08
2018-09-28T09:15:58.928Z,57.18
2018-09-28T09:18:59.258Z,57.5
2018-09-28T09:19:59.383Z,57.3
2018-09-28T09:20:59.307Z,57.3
2018-09-28T09:22:14.043Z,55.89
2018-09-28T09:22:59.356Z,56.08
2018-09-28T09:23:59.649Z,55.82
2018-09-28T09:24:59.411Z,55.34
2018-09-28T09:25:59.432Z,55.24
2018-09-28T09:26:59.198Z,54.86
2018-09-28T09:27:59.475Z,56.46
2018-09-28T09:29:59.604Z,55.79
2018-09-28T09:31:59.575Z,56.44
2018-09-28T09:32:59.600Z,57.3
2018-09-28T09:33:59.626Z,57.3
2018-09-28T09:34:59.650Z,59.09
2018-09-28T09:35:59.677Z,60.03
2018-09-28T09:37:14.362Z,60.79
2018-09-28T09:37:59.466Z,60.31
2018-09-28T09:38:59.750Z,60.7
2018-09-28T09:39:59.518Z,59.64
2018-09-28T09:40:59.804Z,59.93
2018-09-28T09:41:59.824Z,61.15
2018-09-28T09:42:59.849Z,61.53
2018-09-28T09:43:59.879Z,61.43
2018-09-28T09:44:59.903Z,61.34
2018-09-28T09:46:59.943Z,61.18
2018-09-28T09:47:59.968Z,60.89
2018-09-28T09:49:00.150Z,59.09
2018-09-28T09:50:00.014Z,58.55
2018-09-28T09:50:59.783Z,57.68
2018-09-28T09:52:00.074Z,57.43
2018-09-28T09:53:00.088Z,57.62
2018-09-28T09:54:00.113Z,56.95
2018-09-28T09:55:00.147Z,57.43
2018-09-28T09:55:59.902Z,55.63
2018-09-28T09:57:00.183Z,56.37
2018-09-28T09:58:00.250Z,56.18
2018-09-28T09:59:00.233Z,55.89
2018-09-28T10:00:00.257Z,55.19
2018-09-28T10:01:00.285Z,56.12
2018-09-28T10:03:00.333Z,56.41
2018-09-28T10:04:00.099Z,55.93
2018-09-28T10:05:00.385Z,56.02
2018-09-28T10:06:00.405Z,55.07
2018-09-28T10:07:00.433Z,55.26
2018-09-28T10:08:00.453Z,55.71
2018-09-28T10:09:15.138Z,55.8
2018-09-28T10:10:00.246Z,56
2018-09-28T10:11:00.528Z,56.74
2018-09-28T10:12:00.555Z,56.54
2018-09-28T10:13:00.576Z,56.54
2018-09-28T10:14:00.601Z,57.31
2018-09-28T10:15:00.625Z,55.97
2018-09-28T10:16:00.674Z,57.21
2018-09-28T10:17:00.677Z,58.08
2018-09-28T10:19:00.464Z,57.06
2018-09-28T10:20:00.787Z,56.48
2018-09-28T10:21:00.769Z,57.31
2018-09-28T10:22:00.795Z,56.07
2018-09-28T10:23:00.821Z,56.45
2018-09-28T10:24:00.845Z,57.21
2018-09-28T10:25:15.529Z,57.31
2018-09-28T10:26:00.891Z,57.43
2018-09-28T10:27:00.976Z,57.41
2018-09-28T10:28:01.077Z,58.34
2018-09-28T10:29:00.980Z,57.95
2018-09-28T10:30:00.727Z,57.79
2018-09-28T10:31:00.749Z,58.44
2018-09-28T10:32:01.031Z,58.24
2018-09-28T10:33:01.065Z,58.05
2018-09-28T10:34:01.091Z,58.08
2018-09-28T10:36:01.131Z,58.37
2018-09-28T10:37:00.892Z,57.7
2018-09-28T10:38:01.173Z,58.27
2018-09-28T10:39:01.203Z,57.34
2018-09-28T10:40:01.225Z,57.15
2018-09-28T10:41:15.982Z,57.24
2018-09-28T10:42:01.275Z,57.34
2018-09-28T10:43:01.034Z,57.43
2018-09-28T10:44:01.316Z,57.15
2018-09-28T10:45:01.337Z,56.57
2018-09-28T10:46:01.103Z,56.67
2018-09-28T10:47:01.126Z,56.48
2018-09-28T10:49:01.432Z,56.09
2018-09-28T10:50:01.456Z,56
2018-09-28T10:53:01.673Z,54.39
2018-09-28T10:54:01.547Z,54.68
2018-09-28T10:55:01.971Z,54.78
2018-09-28T10:56:01.595Z,54.78
2018-09-28T10:57:16.332Z,55.07
2018-09-28T10:58:01.639Z,54.71
2018-09-28T10:59:01.921Z,54.9
2018-09-28T11:00:01.688Z,54.04
2018-09-28T11:01:01.711Z,53.85
2018-09-28T11:02:01.739Z,53.75
2018-09-28T11:03:01.757Z,54.52
2018-09-28T11:04:01.779Z,53.94
2018-09-28T11:06:01.825Z,53.27
2018-09-28T11:07:01.855Z,52.98
2018-09-28T11:08:01.880Z,53.66
2018-09-28T11:09:02.120Z,53.56
2018-09-28T11:10:01.921Z,53.53
2018-09-28T11:11:01.945Z,53.63
2018-09-28T11:12:16.629Z,52.76
2018-09-28T11:13:01.994Z,52.86
2018-09-28T11:14:02.014Z,53.63
2018-09-28T11:15:02.040Z,53.63
2018-09-28T11:16:02.062Z,53.27
2018-09-28T11:18:02.107Z,52.69
2018-09-28T11:19:02.387Z,52.12
2018-09-28T11:20:02.158Z,51.93
2018-09-28T11:22:02.201Z,52.31
2018-09-28T11:23:02.226Z,51.25
2018-09-28T11:24:02.256Z,51.45
2018-09-28T11:25:02.269Z,52
2018-09-28T11:26:02.301Z,51.71
2018-09-28T11:27:02.320Z,52.09
2018-09-28T11:28:02.345Z,51.68
2018-09-28T11:29:02.362Z,52.26
2018-09-28T11:30:02.393Z,52.55
2018-09-28T11:31:02.411Z,52.36
2018-09-28T11:32:02.173Z,52.55
2018-09-28T11:33:02.463Z,51.97
2018-09-28T11:34:02.483Z,51.78
2018-09-28T11:35:02.505Z,51.4
2018-09-28T11:39:02.438Z,51.45
2018-09-28T11:41:02.642Z,49.91
2018-09-28T11:42:02.671Z,50.51
2018-09-28T11:43:02.694Z,49.36
2018-09-28T11:44:17.372Z,48.49
2018-09-28T11:45:02.734Z,48.4
2018-09-28T11:46:02.769Z,48.3
2018-09-28T11:47:02.783Z,48.69
2018-09-28T11:48:02.805Z,48.69
2018-09-28T11:49:02.895Z,49.1
2018-09-28T11:50:02.861Z,49.38
2018-09-28T11:51:02.874Z,48.81
2018-09-28T11:53:02.924Z,46.79
2018-09-28T11:54:02.949Z,47.44
2018-09-28T11:55:02.975Z,47.72
2018-09-28T11:56:02.992Z,47.82
2018-09-28T11:57:03.019Z,46.96
2018-09-28T11:58:03.038Z,47.44
2018-09-28T11:59:03.065Z,47.34
2018-09-28T12:00:17.746Z,47.44
2018-09-28T12:01:03.114Z,47.92
2018-09-28T12:02:03.137Z,47.53
2018-09-28T12:03:03.157Z,47.05
2018-09-28T12:04:03.179Z,47.05
2018-09-28T12:05:03.224Z,47.82
2018-09-28T12:06:03.283Z,48.11
2018-09-28T12:07:03.297Z,48.69
2018-09-28T12:08:03.015Z,48.4
2018-09-28T12:09:03.294Z,48.11
2018-09-28T12:10:03.320Z,47.82
2018-09-28T12:11:03.584Z,47.82
2018-09-28T12:12:03.368Z,47.92
2018-09-28T12:13:03.396Z,47.72
2018-09-28T12:14:03.411Z,47.63
2018-09-28T12:15:03.443Z,47.8
2018-09-28T12:16:18.121Z,47.82
2018-09-28T12:17:03.486Z,47.72
2018-09-28T12:18:03.251Z,48.28
2018-09-28T12:19:03.570Z,48.66
2018-09-28T12:20:03.568Z,49.15
2018-09-28T12:21:03.592Z,49.33
2018-09-28T12:22:03.600Z,49.36
2018-09-28T12:23:03.629Z,48.4
2018-09-28T12:24:03.666Z,49.07
2018-09-28T12:25:03.675Z,48.97
2018-09-28T12:26:03.694Z,48.97
2018-09-28T12:27:03.717Z,49.17
2018-09-28T12:28:03.758Z,48.49
2018-09-28T12:29:03.764Z,49.26
2018-09-28T12:30:03.792Z,48.88
2018-09-28T12:31:03.813Z,49.72
2018-09-28T12:32:18.496Z,49.15
2018-09-28T12:33:03.858Z,49.15
2018-09-28T12:34:03.884Z,49.15
2018-09-28T12:35:03.906Z,49.05
2018-09-28T12:36:03.671Z,48.66
2018-09-28T12:37:03.945Z,49.31
2018-09-28T12:38:03.978Z,49.6
2018-09-28T12:39:04.167Z,49.98
2018-09-28T12:40:04.197Z,49.88
2018-09-28T12:41:04.050Z,49.88
2018-09-28T12:42:03.815Z,49.88
2018-09-28T12:43:03.834Z,49.96
2018-09-28T12:44:03.859Z,50.05
2018-09-28T12:45:04.462Z,50.63
2018-09-28T12:46:03.905Z,49.67
2018-09-28T12:47:18.848Z,49.29
2018-09-28T12:48:04.249Z,48.64
2018-09-28T12:49:04.242Z,48.93
2018-09-28T12:50:04.000Z,48.16
2018-09-28T12:51:04.022Z,47.87
2018-09-28T12:52:04.307Z,47.58
2018-09-28T12:53:04.328Z,46.91
2018-09-28T12:54:04.351Z,46.43
2018-09-28T12:56:04.395Z,46.5
2018-09-28T12:57:04.424Z,46.22
2018-09-28T12:58:04.183Z,46.89
2018-09-28T12:59:04.207Z,47.39
2018-09-28T13:00:04.230Z,47.39
2018-09-28T13:01:04.888Z,47.77
2018-09-28T13:02:04.276Z,48.52
2018-09-28T13:03:04.567Z,48.71
2018-09-28T13:04:04.323Z,48.43
2018-09-28T13:05:04.345Z,48.33
2018-09-28T13:06:04.369Z,48.43
2018-09-28T13:07:04.391Z,48.61
2018-09-28T13:08:04.414Z,47.17
2018-09-28T13:09:04.695Z,47.39
2018-09-28T13:10:04.462Z,46.34
2018-09-28T13:11:04.484Z,46.05
2018-09-28T13:12:04.506Z,45.95
2018-09-28T13:14:04.553Z,45.95
2018-09-28T13:15:04.688Z,45.86
2018-09-28T13:16:04.600Z,46.05
2018-09-28T13:17:04.623Z,46.53
2018-09-28T13:18:04.908Z,46.91
2018-09-28T13:19:19.586Z,47.56
2018-09-28T13:20:04.742Z,47.75
2018-09-28T13:21:05.048Z,47.97
2018-09-28T13:22:04.737Z,48.44
2018-09-28T13:23:04.759Z,47.49
2018-09-28T13:24:04.783Z,47.39
2018-09-28T13:25:04.906Z,47.3
2018-09-28T13:26:04.828Z,47.49
2018-09-28T13:27:05.160Z,48.07
2018-09-28T13:29:04.946Z,47.32
2018-09-28T13:30:04.922Z,47.41
2018-09-28T13:31:04.944Z,47.3
2018-09-28T13:32:05.405Z,47.68
2018-09-28T13:33:04.990Z,46.91
2018-09-28T13:34:05.014Z,46.81
2018-09-28T13:35:19.957Z,45.37
2018-09-28T13:36:05.433Z,44.78
2018-09-28T13:37:05.083Z,45.64
2018-09-28T13:38:05.374Z,44.68
2018-09-28T13:39:05.242Z,44.68
2018-09-28T13:40:05.151Z,43.63
2018-09-28T13:41:05.437Z,43.46
2018-09-28T13:42:05.458Z,43.24
2018-09-28T13:45:05.710Z,43.07
2018-09-28T13:46:05.677Z,43.17
2018-09-28T13:47:05.574Z,43.17